Apache — WCY5541 — position and weather

sailwx.info

Track history (hours):
 
Tides and Currents Weather Stations Pressure Air Temp Water Temp Dewpoint Dewpoint Depression Visibility Wind Speed Wind Dir Waves Ship Positions

Apache

Owner: SAUSE BROS., COOS BAY, OR. More information available from US FCC via Universal Licensing System and Coast Guard Vessel Documentation Center.

Last reported at 2018-Apr-20 20:16 UTC. Time now 2018-Apr-21 19:25 UTC.
Position N 33°44' W 118°16'.

Length 15 m; draft 2 m.

Type: Towing. MMSI: 367008720.

Date/timePositionNaut miles runAvg speedWind from/ knotsBaromVisibWave heightAir tempDewpointWater temp
2018-Apr-20 20:16N 33°44' W 118°16'0 1.8
2018-Apr-20 20:00N 33°44' W 118°16'2 4.1
2018-Apr-20 19:30N 33°43' W 118°13'3 5.5
2018-Apr-20 18:57N 33°44' W 118°10'1 1.1
2018-Apr-20 18:27N 33°44' W 118°09'0 0.0
2018-Apr-20 15:24N 33°44' W 118°09'2 4.6
2018-Apr-20 15:00N 33°44' W 118°11'3 5.1
2018-Apr-20 14:30N 33°43' W 118°14'2 3.3
2018-Apr-20 13:55N 33°44' W 118°16'  
2018-Apr-17 18:26N 33°44' W 118°16'0 0.0
2018-Apr-17 17:59N 33°44' W 118°16'0 0.0
2018-Apr-17 17:29N 33°44' W 118°16'0 0.0
2018-Apr-17 16:59N 33°44' W 118°16'0 0.0
2018-Apr-17 16:29N 33°44' W 118°16'0 0.0
2018-Apr-17 15:59N 33°44' W 118°16'0 0.0
2018-Apr-16 19:52N 33°44' W 118°16'1 2.5
2018-Apr-16 19:30N 33°43' W 118°16'1 1.4
2018-Apr-16 18:59N 33°44' W 118°16'0 0.0
2018-Apr-16 18:29N 33°44' W 118°16'0 0.0
2018-Apr-16 17:59N 33°44' W 118°16'0 0.0
2018-Apr-16 17:29N 33°44' W 118°16'0 0.0
2018-Apr-16 16:59N 33°44' W 118°16'0 0.0
2018-Apr-16 16:26N 33°44' W 118°16'0 0.0
2018-Apr-16 15:59N 33°44' W 118°16'0 0.0
2018-Apr-16 15:29N 33°44' W 118°16'0 0.0
2018-Apr-16 14:59N 33°44' W 118°16'0 0.0
2018-Apr-16 14:29N 33°44' W 118°16'0 0.0
2018-Apr-16 13:59N 33°44' W 118°16'0 0.5
2018-Apr-16 13:28N 33°44' W 118°16'  
2018-Apr-12 06:25N 33°44' W 118°16'1 3.2
2018-Apr-12 06:00N 33°43' W 118°16'2 0.6
2018-Apr-12 02:16N 33°43' W 118°13'0 0.1
2018-Apr-12 01:55N 33°43' W 118°13'0 0.1
2018-Apr-12 01:30N 33°43' W 118°13'0 1.0
2018-Apr-12 01:00N 33°44' W 118°13'0 0.2
2018-Apr-12 00:30N 33°44' W 118°13'1 1.2
2018-Apr-11 23:58N 33°44' W 118°14'0 0.0
2018-Apr-11 23:25N 33°44' W 118°14'0 0.0
2018-Apr-11 22:58N 33°44' W 118°14'0 0.0
2018-Apr-11 22:28N 33°44' W 118°14'0 0.0
2018-Apr-11 21:58N 33°44' W 118°14'0 0.0
2018-Apr-11 21:28N 33°44' W 118°14'0 0.0
2018-Apr-11 20:58N 33°44' W 118°14'0 0.0
2018-Apr-11 20:25N 33°44' W 118°14'0 0.4
2018-Apr-11 19:58N 33°44' W 118°14'1 2.6
2018-Apr-11 19:30N 33°45' W 118°13'2 3.0
2018-Apr-11 18:58N 33°46' W 118°13'0 0.5
2018-Apr-11 18:28N 33°47' W 118°13'0 0.0
2018-Apr-11 17:58N 33°47' W 118°13'0 0.0
2018-Apr-11 17:28N 33°47' W 118°13'0 0.0
2018-Apr-11 14:55N 33°47' W 118°13'0 0.0
2018-Apr-11 14:16N 33°47' W 118°13'0 0.0
2018-Apr-11 13:52N 33°47' W 118°13'0 0.0
2018-Apr-11 13:28N 33°47' W 118°13'1 1.3
2018-Apr-11 12:58N 33°46' W 118°13'2 4.7
2018-Apr-11 12:31N 33°44' W 118°13'2 4.2
2018-Apr-11 12:00N 33°43' W 118°16'  
Track history (hours):
 
Tides and Currents Weather Stations Pressure Air Temp Water Temp Dewpoint Dewpoint Depression Visibility Wind Speed Wind Dir Waves Ship Positions

Apache

Owner: SAUSE BROS., COOS BAY, OR. More information available from US FCC via Universal Licensing System and Coast Guard Vessel Documentation Center.

Last reported at 2018-Apr-20 20:16 UTC. Time now 2018-Apr-21 19:25 UTC.
Position N 33°44' W 118°16'.

Length 15 m; draft 2 m.

Type: Towing. MMSI: 367008720.

Date/timePositionNaut miles runAvg speedWind from/ knotsBaromVisibWave heightAir tempDewpointWater temp
2018-Apr-20 20:16N 33°44' W 118°16'0 1.8
2018-Apr-20 20:00N 33°44' W 118°16'2 4.1
2018-Apr-20 19:30N 33°43' W 118°13'3 5.5
2018-Apr-20 18:57N 33°44' W 118°10'1 1.1
2018-Apr-20 18:27N 33°44' W 118°09'0 0.0
2018-Apr-20 15:24N 33°44' W 118°09'2 4.6
2018-Apr-20 15:00N 33°44' W 118°11'3 5.1
2018-Apr-20 14:30N 33°43' W 118°14'2 3.3
2018-Apr-20 13:55N 33°44' W 118°16'  
2018-Apr-17 18:26N 33°44' W 118°16'0 0.0
2018-Apr-17 17:59N 33°44' W 118°16'0 0.0
2018-Apr-17 17:29N 33°44' W 118°16'0 0.0
2018-Apr-17 16:59N 33°44' W 118°16'0 0.0
2018-Apr-17 16:29N 33°44' W 118°16'0 0.0
2018-Apr-17 15:59N 33°44' W 118°16'0 0.0
2018-Apr-16 19:52N 33°44' W 118°16'1 2.5
2018-Apr-16 19:30N 33°43' W 118°16'1 1.4
2018-Apr-16 18:59N 33°44' W 118°16'0 0.0
2018-Apr-16 18:29N 33°44' W 118°16'0 0.0
2018-Apr-16 17:59N 33°44' W 118°16'0 0.0
2018-Apr-16 17:29N 33°44' W 118°16'0 0.0
2018-Apr-16 16:59N 33°44' W 118°16'0 0.0
2018-Apr-16 16:26N 33°44' W 118°16'0 0.0
2018-Apr-16 15:59N 33°44' W 118°16'0 0.0
2018-Apr-16 15:29N 33°44' W 118°16'0 0.0
2018-Apr-16 14:59N 33°44' W 118°16'0 0.0
2018-Apr-16 14:29N 33°44' W 118°16'0 0.0
2018-Apr-16 13:59N 33°44' W 118°16'0 0.5
2018-Apr-16 13:28N 33°44' W 118°16'  
2018-Apr-12 06:25N 33°44' W 118°16'1 3.2
2018-Apr-12 06:00N 33°43' W 118°16'2 0.6
2018-Apr-12 02:16N 33°43' W 118°13'0 0.1
2018-Apr-12 01:55N 33°43' W 118°13'0 0.1
2018-Apr-12 01:30N 33°43' W 118°13'0 1.0
2018-Apr-12 01:00N 33°44' W 118°13'0 0.2
2018-Apr-12 00:30N 33°44' W 118°13'1 1.2
2018-Apr-11 23:58N 33°44' W 118°14'0 0.0
2018-Apr-11 23:25N 33°44' W 118°14'0 0.0
2018-Apr-11 22:58N 33°44' W 118°14'0 0.0
2018-Apr-11 22:28N 33°44' W 118°14'0 0.0
2018-Apr-11 21:58N 33°44' W 118°14'0 0.0
2018-Apr-11 21:28N 33°44' W 118°14'0 0.0
2018-Apr-11 20:58N 33°44' W 118°14'0 0.0
2018-Apr-11 20:25N 33°44' W 118°14'0 0.4
2018-Apr-11 19:58N 33°44' W 118°14'1 2.6
2018-Apr-11 19:30N 33°45' W 118°13'2 3.0
2018-Apr-11 18:58N 33°46' W 118°13'0 0.5
2018-Apr-11 18:28N 33°47' W 118°13'0 0.0
2018-Apr-11 17:58N 33°47' W 118°13'0 0.0
2018-Apr-11 17:28N 33°47' W 118°13'0 0.0
2018-Apr-11 14:55N 33°47' W 118°13'0 0.0
2018-Apr-11 14:16N 33°47' W 118°13'0 0.0
2018-Apr-11 13:52N 33°47' W 118°13'0 0.0
2018-Apr-11 13:28N 33°47' W 118°13'1 1.3
2018-Apr-11 12:58N 33°46' W 118°13'2 4.7
2018-Apr-11 12:31N 33°44' W 118°13'2 4.2
2018-Apr-11 12:00N 33°43' W 118°16'  

Dump ship's entire track history